Time;durP1;ratioP1;P1;durP2;ratioP2;P2;SDS_P1;SDS_P2;PMS_P1;PMS_P2;Temp;Humidity;BMP_temperature;BMP_pressure;BME280_temperature;BME280_humidity;BME280_pressure;Samples;Min_cycle;Max_cycle;Signal;HPM_P1;HPM_P2
2021/12/24 00:02:12;;;;;;;6.15;4.47;;;;;;;7.00;76.03;99744.63;5052422;28;20397;-77
2021/12/24 00:04:38;;;;;;;7.27;4.43;;;;;;;7.13;76.58;99747.03;5042830;28;20802;-77
2021/12/24 00:07:03;;;;;;;5.90;4.47;;;;;;;7.20;76.56;99747.72;5045373;28;20385;-77
2021/12/24 00:09:32;;;;;;;7.55;4.43;;;;;;;7.17;76.41;99740.13;5041166;28;20497;-77
2021/12/24 00:12:00;;;;;;;5.82;4.60;;;;;;;7.15;75.99;99732.25;5036614;28;20402;-77
2021/12/24 00:14:28;;;;;;;6.63;4.23;;;;;;;7.26;75.62;99736.81;5035225;28;20407;-77
2021/12/24 00:16:57;;;;;;;6.65;3.92;;;;;;;7.25;76.39;99728.94;5033835;28;20878;-77
2021/12/24 00:19:42;;;;;;;6.20;4.10;;;;;;;7.20;75.82;99720.78;5051239;28;20780;-77
2021/12/24 00:35:47;;;;;;;5.47;4.40;;;;;;;7.20;76.64;99726.16;5038862;28;20380;-77
2021/12/24 00:38:13;;;;;;;7.27;4.43;;;;;;;7.19;76.11;99724.53;5046299;28;20882;-77
2021/12/24 00:40:45;;;;;;;7.03;4.63;;;;;;;7.07;76.89;99715.69;5033328;28;20466;-77
2021/12/24 00:43:12;;;;;;;6.22;4.25;;;;;;;7.13;77.15;99726.31;5049032;28;20500;-77
2021/12/24 00:45:42;;;;;;;5.20;4.50;;;;;;;7.33;76.76;99731.28;5036529;28;20916;-77
2021/12/24 00:48:08;;;;;;;6.50;4.68;;;;;;;7.47;75.54;99723.69;5036834;28;20431;-77
2021/12/24 00:56:01;;;;;;;4.82;4.10;;;;;;;7.59;74.72;99716.34;5040105;28;20714;-78
2021/12/24 00:58:26;;;;;;;5.68;4.43;;;;;;;7.78;74.06;99723.16;5033918;28;20422;-77
2021/12/24 01:00:52;;;;;;;6.37;4.40;;;;;;;7.74;74.40;99714.72;5045720;28;20447;-77
2021/12/24 01:03:17;;;;;;;6.68;4.20;;;;;;;7.60;74.54;99713.44;5034055;28;20888;-77
2021/12/24 01:05:43;;;;;;;7.03;4.93;;;;;;;7.56;74.75;99719.53;5037016;28;20419;-77
2021/12/24 01:08:11;;;;;;;7.73;4.10;;;;;;;7.48;74.42;99728.84;5033607;28;20410;-77
2021/12/24 01:10:44;;;;;;;7.53;5.10;;;;;;;7.46;74.54;99704.00;5035545;28;20427;-77
2021/12/24 01:13:09;;;;;;;7.00;4.78;;;;;;;7.35;74.74;99728.31;5037901;28;20492;-78
2021/12/24 01:15:40;;;;;;;6.88;5.25;;;;;;;7.18;75.44;99720.19;5052737;28;20978;-77
2021/12/24 01:18:17;;;;;;;8.57;4.87;;;;;;;7.23;75.72;99725.69;5034328;28;20470;-77
2021/12/24 01:20:47;;;;;;;5.28;4.60;;;;;;;7.27;75.45;99724.97;5033622;28;20407;-77
2021/12/24 01:23:38;;;;;;;8.18;5.03;;;;;;;7.43;75.29;99730.63;5047571;28;20427;-77
2021/12/24 01:26:11;;;;;;;6.60;5.22;;;;;;;7.55;74.20;99718.72;5033655;28;20423;-77
2021/12/24 01:40:07;;;;;;;7.60;5.13;;;;;;;7.52;74.38;99737.25;5040925;28;20521;-77
2021/12/24 01:43:07;;;;;;;5.43;4.93;;;;;;;7.47;74.76;99729.09;5032760;28;20476;-77
2021/12/24 01:45:35;;;;;;;6.15;5.30;;;;;;;7.39;74.78;99735.69;5040749;28;20456;-77
2021/12/24 01:48:04;;;;;;;9.25;5.05;;;;;;;7.37;75.16;99737.81;5037200;28;20513;-77
2021/12/24 01:50:33;;;;;;;7.43;5.18;;;;;;;7.37;75.18;99735.13;5036946;28;20428;-77
2021/12/24 01:53:00;;;;;;;7.07;4.63;;;;;;;7.28;75.00;99731.16;5043088;28;20919;-77
2021/12/24 01:55:26;;;;;;;8.55;5.03;;;;;;;7.35;74.88;99731.84;5033848;28;20403;-77
2021/12/24 01:57:52;;;;;;;6.03;4.90;;;;;;;7.34;75.21;99737.47;5032982;28;20897;-78
2021/12/24 02:00:21;;;;;;;8.40;5.15;;;;;;;7.36;74.98;99735.34;5050160;28;20393;-78
2021/12/24 02:02:47;;;;;;;6.22;5.13;;;;;;;7.41;75.21;99730.06;5036298;28;20399;-77
2021/12/24 02:05:13;;;;;;;5.72;4.85;;;;;;;7.46;74.84;99716.66;5033096;28;20419;-77
2021/12/24 02:07:39;;;;;;;5.15;4.50;;;;;;;7.42;74.49;99721.72;5046736;28;20444;-77
2021/12/24 02:10:07;;;;;;;7.43;4.47;;;;;;;7.42;74.80;99720.91;5040034;28;20427;-77
2021/12/24 02:12:34;;;;;;;5.60;4.30;;;;;;;7.39;75.01;99718.69;5036199;28;20782;-78
2021/12/24 02:15:02;;;;;;;4.85;4.10;;;;;;;7.30;75.42;99719.09;5047642;28;20391;-77
2021/12/24 02:17:55;;;;;;;8.55;4.97;;;;;;;7.21;75.24;99711.66;5043340;28;20400;-77
2021/12/24 02:28:52;;;;;;;10.85;4.30;;;;;;;7.46;74.76;99687.84;5038618;28;20432;-77
2021/12/24 02:31:21;;;;;;;6.87;4.40;;;;;;;7.35;74.78;99688.72;5031722;28;20395;-77
2021/12/24 02:33:47;;;;;;;6.50;4.18;;;;;;;7.37;75.67;99689.31;5054212;28;20395;-77
2021/12/24 02:36:13;;;;;;;6.38;4.38;;;;;;;7.39;75.46;99686.34;5053878;28;20398;-77
2021/12/24 02:38:39;;;;;;;5.57;4.43;;;;;;;7.38;75.07;99682.81;5040636;28;20441;-77
2021/12/24 02:41:06;;;;;;;5.68;4.25;;;;;;;7.42;75.32;99688.56;5031412;28;20465;-77
2021/12/24 02:43:32;;;;;;;7.20;4.95;;;;;;;7.40;75.49;99680.72;5050064;28;20426;-77
2021/12/24 02:46:07;;;;;;;5.53;4.50;;;;;;;7.36;75.90;99682.25;5045440;28;20405;-78
2021/12/24 02:54:00;;;;;;;6.38;4.63;;;;;;;7.39;75.49;99689.03;5032075;28;20848;-77
2021/12/24 02:56:30;;;;;;;5.53;4.70;;;;;;;7.36;75.51;99687.66;5034358;28;20401;-77
2021/12/24 02:59:01;;;;;;;7.60;4.80;;;;;;;7.47;74.99;99683.28;5045863;28;20409;-77
2021/12/24 03:01:36;;;;;;;6.38;4.80;;;;;;;7.36;75.44;99676.88;5031698;28;20411;-77
2021/12/24 03:04:02;;;;;;;7.20;4.80;;;;;;;7.35;75.86;99677.09;5041716;28;20416;-77
2021/12/24 03:06:32;;;;;;;5.15;4.53;;;;;;;7.38;75.71;99680.13;5046023;28;20977;-77
2021/12/24 03:08:58;;;;;;;6.28;4.82;;;;;;;7.32;76.03;99673.84;5033582;28;20403;-78
2021/12/24 03:11:24;;;;;;;5.38;4.97;;;;;;;7.26;75.88;99666.72;5048280;28;20499;-77
2021/12/24 03:13:51;;;;;;;5.63;5.03;;;;;;;7.21;75.89;99668.53;5040171;28;20742;-77
2021/12/24 03:16:17;;;;;;;6.47;4.57;;;;;;;7.27;76.64;99667.56;5034193;28;20836;-77
2021/12/24 03:18:44;;;;;;;5.40;4.83;;;;;;;7.25;76.08;99667.78;5032936;28;20472;-77
2021/12/24 03:21:15;;;;;;;5.53;4.70;;;;;;;7.27;76.45;99668.38;5045612;28;20465;-77
2021/12/24 03:23:45;;;;;;;6.78;5.28;;;;;;;7.35;76.58;99671.72;5031348;28;20390;-77
2021/12/24 03:26:14;;;;;;;7.00;4.80;;;;;;;7.36;76.05;99665.28;5039223;28;20964;-77
2021/12/24 03:28:40;;;;;;;4.90;4.50;;;;;;;7.36;76.16;99670.66;5054020;28;20399;-77
2021/12/24 03:31:06;;;;;;;7.20;5.15;;;;;;;7.31;76.25;99664.13;5045353;28;20387;-77
2021/12/24 03:33:34;;;;;;;6.47;5.05;;;;;;;7.38;76.38;99665.84;5049215;28;20807;-77
2021/12/24 03:36:01;;;;;;;5.40;4.50;;;;;;;7.36;76.38;99663.41;5041143;28;20492;-77
2021/12/24 03:38:27;;;;;;;7.28;5.05;;;;;;;7.35;76.18;99666.31;5032861;28;20878;-77
2021/12/24 03:40:52;;;;;;;5.88;4.43;;;;;;;7.38;76.21;99663.13;5030732;28;20414;-78
2021/12/24 03:43:17;;;;;;;5.53;4.72;;;;;;;7.37;76.05;99664.22;5038576;28;20414;-77
2021/12/24 03:45:58;;;;;;;5.33;4.80;;;;;;;7.28;76.52;99653.00;5040808;28;20455;-77
2021/12/24 03:48:40;;;;;;;10.65;6.57;;;;;;;7.19;76.65;99643.69;5045467;28;20426;-77
2021/12/24 03:51:37;;;;;;;6.32;4.85;;;;;;;7.14;77.69;99639.03;5040411;28;20369;-77
2021/12/24 03:56:39;;;;;;;19.60;10.07;;;;;;;7.18;77.67;99636.66;5036459;28;20465;-77
2021/12/24 03:59:06;;;;;;;28.40;12.85;;;;;;;7.16;77.96;99630.69;5042945;28;20393;-78
2021/12/24 04:01:32;;;;;;;16.25;8.80;;;;;;;7.11;78.02;99622.53;5031123;28;20423;-77
2021/12/24 04:03:57;;;;;;;19.65;10.68;;;;;;;7.07;78.57;99627.59;5047463;28;20406;-78
2021/12/24 04:06:23;;;;;;;13.93;8.77;;;;;;;7.06;79.09;99633.22;5032976;28;20402;-77
2021/12/24 04:08:49;;;;;;;14.88;7.47;;;;;;;7.14;78.92;99627.44;5036071;28;20455;-77
2021/12/24 04:11:14;;;;;;;15.13;8.77;;;;;;;7.08;78.96;99625.72;5045969;28;20405;-78
2021/12/24 04:13:39;;;;;;;8.70;6.30;;;;;;;7.08;78.94;99621.13;5037703;28;20868;-77
2021/12/24 04:16:05;;;;;;;11.27;5.85;;;;;;;7.10;78.67;99619.03;5030756;28;20414;-77
2021/12/24 04:26:30;;;;;;;10.10;7.10;;;;;;;7.09;78.55;99622.75;5035649;28;20473;-77
2021/12/24 04:28:55;;;;;;;10.10;7.38;;;;;;;7.12;78.17;99624.16;5042969;28;20398;-77
2021/12/24 04:31:27;;;;;;;8.93;6.27;;;;;;;7.10;77.94;99618.19;5046088;28;20407;-77
2021/12/24 04:33:57;;;;;;;11.02;6.57;;;;;;;7.04;78.32;99628.09;5030330;28;20757;-77
2021/12/24 05:03:35;;;;;;;5.60;4.40;;;;;;;7.19;77.82;99614.03;5032988;28;20461;-78
2021/12/24 05:06:10;;;;;;;5.80;4.60;;;;;;;7.22;77.72;99605.47;5044081;28;20424;-77
2021/12/24 05:08:50;;;;;;;6.93;4.57;;;;;;;7.24;78.48;99606.06;5038328;28;20449;-77
2021/12/24 05:11:17;;;;;;;4.93;4.13;;;;;;;7.22;78.24;99600.91;5039507;28;20381;-77
2021/12/24 05:13:43;;;;;;;5.20;4.70;;;;;;;7.16;78.50;99596.50;5046974;28;20919;-77
2021/12/24 05:16:41;;;;;;;11.40;6.05;;;;;;;7.16;78.13;99592.97;5040674;28;20445;-77
2021/12/24 05:21:32;;;;;;;8.77;6.22;;;;;;;7.25;78.35;99599.59;5038357;28;20424;-77
2021/12/24 05:21:43;;;;;;;13.80;6.32;;;;;;;7.24;78.73;99595.28;5051128;28;20393;-77
2021/12/24 05:24:14;;;;;;;9.20;5.33;;;;;;;7.24;78.36;99604.16;5053421;28;20410;-78
2021/12/24 05:26:43;;;;;;;6.25;5.05;;;;;;;7.24;78.35;99603.38;5042367;28;20455;-77
2021/12/24 05:29:08;;;;;;;8.50;5.47;;;;;;;7.24;77.79;99609.53;5049048;28;20964;-78
2021/12/24 05:31:35;;;;;;;7.53;5.50;;;;;;;7.20;78.14;99616.50;5035915;28;20415;-77
2021/12/24 05:34:01;;;;;;;9.10;5.90;;;;;;;7.16;78.49;99617.22;5043179;28;20400;-77
2021/12/24 05:36:27;;;;;;;5.33;4.40;;;;;;;7.17;78.69;99613.47;5035842;28;20499;-77
2021/12/24 05:38:52;;;;;;;10.47;6.03;;;;;;;7.15;79.25;99627.19;5047621;28;20395;-77
2021/12/24 05:41:21;;;;;;;5.30;4.57;;;;;;;7.14;79.48;99614.78;5045532;28;20543;-77
2021/12/24 05:43:46;;;;;;;5.43;4.22;;;;;;;7.20;79.03;99616.50;5045527;28;20432;-77
2021/12/24 05:46:11;;;;;;;5.38;4.80;;;;;;;7.30;78.70;99616.69;5035954;28;20398;-77
2021/12/24 05:48:37;;;;;;;8.43;5.07;;;;;;;7.30;78.62;99605.09;5038463;28;20457;-77
2021/12/24 05:51:03;;;;;;;5.93;4.80;;;;;;;7.26;78.85;99614.72;5039128;28;20400;-77
2021/12/24 05:53:28;;;;;;;5.88;4.43;;;;;;;7.24;79.00;99609.53;5049806;28;20884;-77
2021/12/24 05:55:54;;;;;;;8.75;4.93;;;;;;;7.21;78.69;99606.56;5033430;28;20410;-77
2021/12/24 05:58:19;;;;;;;7.00;4.87;;;;;;;7.16;79.14;99607.28;5032696;28;20764;-77
2021/12/24 06:00:46;;;;;;;6.47;5.07;;;;;;;7.28;78.57;99605.31;5039179;28;20415;-77
2021/12/24 06:03:11;;;;;;;7.22;4.82;;;;;;;7.32;78.88;99611.84;5034754;28;20913;-77
2021/12/24 06:05:37;;;;;;;5.67;4.70;;;;;;;7.38;78.48;99614.63;5034143;28;20451;-77
2021/12/24 06:08:05;;;;;;;7.32;5.00;;;;;;;7.38;78.41;99615.44;5028004;28;20505;-78
2021/12/24 06:10:33;;;;;;;4.43;3.90;;;;;;;7.38;78.06;99618.13;5037681;28;20401;-78
2021/12/24 06:12:59;;;;;;;4.93;4.18;;;;;;;7.40;78.05;99623.28;5037027;28;20453;-78
2021/12/24 06:15:26;;;;;;;4.65;4.03;;;;;;;7.44;78.41;99619.06;5043402;28;20408;-77
2021/12/24 06:17:55;;;;;;;6.15;4.20;;;;;;;7.45;78.14;99620.66;5033436;28;20732;-77
2021/12/24 06:20:21;;;;;;;4.55;4.15;;;;;;;7.42;78.27;99626.56;5048634;28;20948;-77
2021/12/24 06:22:49;;;;;;;5.13;4.20;;;;;;;7.46;77.83;99623.13;5040964;28;20418;-79
2021/12/24 06:25:17;;;;;;;4.40;3.90;;;;;;;7.45;77.85;99634.97;5042050;28;20417;-77
2021/12/24 06:27:42;;;;;;;5.82;4.10;;;;;;;7.44;77.78;99635.22;5038155;28;20788;-77
2021/12/24 06:30:08;;;;;;;4.50;3.87;;;;;;;7.41;77.81;99636.50;5046080;28;20402;-77
2021/12/24 06:32:34;;;;;;;5.85;4.05;;;;;;;7.46;77.66;99633.91;5047765;28;20941;-77
2021/12/24 06:34:59;;;;;;;4.93;4.03;;;;;;;7.41;77.79;99630.34;5050800;28;20397;-78
2021/12/24 06:37:24;;;;;;;5.10;3.57;;;;;;;7.41;78.46;99622.25;5040627;28;20458;-77
2021/12/24 06:39:50;;;;;;;5.40;4.07;;;;;;;7.42;78.17;99630.06;5039567;28;20428;-77
2021/12/24 06:42:16;;;;;;;4.53;4.00;;;;;;;7.42;78.47;99626.56;5034284;28;20906;-78
2021/12/24 06:44:41;;;;;;;4.70;4.20;;;;;;;7.50;77.98;99626.16;5037538;28;20469;-78
2021/12/24 06:47:07;;;;;;;5.77;3.90;;;;;;;7.47;78.06;99616.69;5032342;28;20395;-77
2021/12/24 06:49:33;;;;;;;5.10;3.67;;;;;;;7.51;78.02;99617.03;5036118;28;20547;-78
2021/12/24 06:51:59;;;;;;;5.23;4.13;;;;;;;7.45;78.21;99620.66;5046702;28;20441;-77
2021/12/24 06:54:24;;;;;;;5.05;4.00;;;;;;;7.59;77.79;99619.28;5034683;28;20424;-78
2021/12/24 06:56:50;;;;;;;4.87;4.30;;;;;;;7.73;77.51;99626.81;5044755;28;20896;-77
2021/12/24 06:59:16;;;;;;;5.27;4.03;;;;;;;7.71;77.43;99625.41;5051500;28;20497;-77
2021/12/24 07:01:42;;;;;;;5.77;4.23;;;;;;;7.73;77.39;99626.00;5041985;28;20911;-77
2021/12/24 07:04:07;;;;;;;5.27;3.70;;;;;;;7.76;77.50;99642.50;5058658;28;20409;-79
2021/12/24 07:06:33;;;;;;;4.20;3.80;;;;;;;7.70;77.37;99634.56;5045311;28;20430;-77
2021/12/24 07:08:59;;;;;;;5.07;4.50;;;;;;;7.62;77.92;99638.50;5043830;28;20416;-78
2021/12/24 07:11:24;;;;;;;5.60;4.23;;;;;;;7.63;77.98;99636.63;5055742;28;20406;-78
2021/12/24 07:13:51;;;;;;;6.80;3.80;;;;;;;7.68;77.60;99632.13;5034860;28;20426;-78
2021/12/24 07:16:16;;;;;;;4.30;3.63;;;;;;;7.67;77.55;99625.06;5031437;28;20411;-78
2021/12/24 07:18:41;;;;;;;5.20;4.17;;;;;;;7.64;78.31;99630.19;5039065;28;20424;-78
2021/12/24 07:21:07;;;;;;;6.70;3.73;;;;;;;7.75;77.91;99629.25;5039290;28;20405;-78
2021/12/24 07:23:33;;;;;;;4.22;3.92;;;;;;;7.75;77.56;99627.38;5042112;28;20407;-78
2021/12/24 07:25:58;;;;;;;4.68;3.80;;;;;;;7.74;77.69;99638.41;5034531;28;20419;-78
2021/12/24 07:28:23;;;;;;;4.67;4.07;;;;;;;7.72;77.97;99621.66;5049561;28;20480;-78
2021/12/24 07:30:48;;;;;;;4.53;3.77;;;;;;;7.76;77.62;99615.53;5031092;28;21622;-77
2021/12/24 07:33:14;;;;;;;4.37;3.97;;;;;;;7.77;77.72;99619.06;5031699;28;20415;-78
2021/12/24 07:35:44;;;;;;;7.83;4.87;;;;;;;7.68;77.86;99617.81;5043668;28;20401;-78
2021/12/24 07:38:13;;;;;;;4.68;4.07;;;;;;;7.75;77.73;99619.28;5032220;28;20411;-77
2021/12/24 07:40:40;;;;;;;5.28;4.35;;;;;;;7.74;77.45;99623.03;5045185;28;20403;-78
2021/12/24 07:43:06;;;;;;;6.18;4.00;;;;;;;7.75;77.80;99626.56;5038604;28;21122;-78
2021/12/24 07:45:32;;;;;;;4.32;3.92;;;;;;;7.74;77.98;99616.81;5037117;28;20419;-78
2021/12/24 07:48:10;;;;;;;8.60;4.90;;;;;;;7.66;78.93;99609.16;5044393;28;20389;-78
2021/12/24 07:53:07;;;;;;;5.18;4.50;;;;;;;7.59;78.78;99600.41;5038072;28;20399;-77
2021/12/24 07:55:34;;;;;;;6.53;4.50;;;;;;;7.59;78.30;99595.03;5032442;28;20936;-77
2021/12/24 07:58:00;;;;;;;5.23;4.73;;;;;;;7.58;78.64;99601.47;5035440;28;20900;-78
2021/12/24 08:00:27;;;;;;;7.50;5.60;;;;;;;7.64;78.19;99609.41;5041044;28;20417;-77
2021/12/24 08:02:54;;;;;;;5.30;4.68;;;;;;;7.64;78.76;99603.22;5038495;28;20419;-78
2021/12/24 08:05:22;;;;;;;5.72;4.90;;;;;;;7.65;78.25;99610.22;5039397;28;20422;-78
2021/12/24 08:07:49;;;;;;;5.32;4.53;;;;;;;7.71;78.51;99614.63;5039298;28;20902;-77
2021/12/24 08:10:15;;;;;;;5.60;4.07;;;;;;;7.68;78.30;99613.22;5045972;28;20410;-77
2021/12/24 08:12:40;;;;;;;8.00;4.70;;;;;;;7.68;78.58;99610.53;5045648;28;20439;-77
2021/12/24 08:15:07;;;;;;;5.30;4.17;;;;;;;7.74;78.28;99611.44;5029702;28;20443;-77
2021/12/24 08:17:33;;;;;;;5.70;3.80;;;;;;;7.79;78.26;99606.13;5035856;28;20817;-77
2021/12/24 08:19:58;;;;;;;8.03;4.33;;;;;;;7.75;78.38;99597.72;5037908;28;20409;-77
2021/12/24 08:22:23;;;;;;;4.37;3.97;;;;;;;7.74;78.90;99601.47;5042739;28;20397;-77
2021/12/24 08:24:49;;;;;;;5.97;4.95;;;;;;;7.74;78.76;99595.25;5044258;28;20878;-77
2021/12/24 08:27:14;;;;;;;8.33;7.00;;;;;;;7.76;78.74;99591.25;5048486;28;20488;-77
2021/12/24 08:29:39;;;;;;;5.40;4.15;;;;;;;7.75;78.65;99595.00;5035086;28;20401;-78
2021/12/24 08:32:05;;;;;;;5.70;4.03;;;;;;;7.74;79.08;99589.84;5051220;28;20924;-78
2021/12/24 08:34:32;;;;;;;4.65;4.25;;;;;;;7.82;78.75;99597.53;5043352;28;20803;-78
2021/12/24 08:36:58;;;;;;;4.47;3.88;;;;;;;7.86;78.79;99592.47;5035145;28;20909;-78
2021/12/24 08:39:24;;;;;;;5.03;4.05;;;;;;;7.86;78.86;99598.69;5038980;28;20440;-77
2021/12/24 08:41:54;;;;;;;3.80;3.45;;;;;;;7.86;78.84;99605.94;5034301;28;20422;-77
2021/12/24 08:44:22;;;;;;;4.18;3.70;;;;;;;7.85;78.96;99605.13;5037505;28;20411;-78
2021/12/24 08:46:48;;;;;;;5.30;4.75;;;;;;;7.84;79.48;99611.56;5033028;28;20724;-78
2021/12/24 08:49:13;;;;;;;6.27;4.53;;;;;;;7.82;79.44;99608.31;5050235;28;20424;-78
2021/12/24 08:51:41;;;;;;;5.03;4.53;;;;;;;7.79;80.32;99622.31;5036670;28;20400;-78
2021/12/24 08:54:06;;;;;;;6.30;5.65;;;;;;;7.71;80.96;99623.53;5028854;28;20414;-78
2021/12/24 08:56:32;;;;;;;9.55;5.13;;;;;;;7.67;81.59;99627.78;5030341;28;20409;-77
2021/12/24 08:58:57;;;;;;;6.93;5.27;;;;;;;7.66;81.15;99620.78;5027096;28;20431;-78
2021/12/24 09:01:22;;;;;;;7.57;5.30;;;;;;;7.62;82.13;99622.31;5025177;28;20758;-77
2021/12/24 09:03:48;;;;;;;6.77;5.23;;;;;;;7.62;82.29;99621.50;5035962;28;20406;-77
2021/12/24 09:06:13;;;;;;;5.77;4.60;;;;;;;7.62;82.29;99616.94;5028590;28;20406;-78
2021/12/24 09:08:43;;;;;;;6.80;5.20;;;;;;;7.55;82.66;99628.94;5032174;28;20856;-78
2021/12/24 09:11:08;;;;;;;7.53;5.18;;;;;;;7.53;83.11;99620.28;5032197;28;20410;-78
2021/12/24 09:13:34;;;;;;;9.43;5.40;;;;;;;7.57;83.32;99607.94;5026011;28;21002;-78
2021/12/24 09:16:00;;;;;;;5.83;5.20;;;;;;;7.55;84.42;99605.47;5032158;28;20510;-78
2021/12/24 09:18:25;;;;;;;7.90;5.80;;;;;;;7.52;84.75;99610.53;5024669;28;20412;-78
2021/12/24 09:20:51;;;;;;;6.00;5.53;;;;;;;7.46;85.49;99614.22;5044988;28;20420;-78
2021/12/24 09:23:18;;;;;;;8.25;5.88;;;;;;;7.42;86.19;99613.91;5043844;28;20417;-78
2021/12/24 09:25:43;;;;;;;9.90;7.10;;;;;;;7.40;86.49;99621.44;5032925;28;20896;-78
2021/12/24 09:28:09;;;;;;;7.23;6.47;;;;;;;7.42;86.63;99615.78;5036940;28;20407;-78
2021/12/24 09:30:35;;;;;;;8.57;7.20;;;;;;;7.38;86.77;99620.84;5046048;28;20405;-78
2021/12/24 09:33:02;;;;;;;8.85;6.10;;;;;;;7.28;86.91;99612.56;5046618;28;20510;-78
2021/12/24 09:35:29;;;;;;;9.73;8.33;;;;;;;7.23;87.99;99616.03;5042473;28;20444;-78
2021/12/24 09:37:55;;;;;;;16.30;10.13;;;;;;;7.20;88.58;99605.72;5033436;28;20391;-78
2021/12/24 09:40:20;;;;;;;16.30;10.57;;;;;;;7.20;88.67;99613.00;5050438;28;20390;-78
2021/12/24 09:42:46;;;;;;;13.50;9.70;;;;;;;7.20;88.75;99611.13;5035415;28;20415;-78
2021/12/24 09:45:12;;;;;;;11.38;8.90;;;;;;;7.22;88.73;99600.09;5046954;28;20470;-78
2021/12/24 09:47:39;;;;;;;15.93;10.13;;;;;;;7.29;88.20;99603.44;5044213;28;20417;-78
2021/12/24 09:50:07;;;;;;;13.00;9.20;;;;;;;7.22;88.63;99610.84;5048001;28;20407;-78
2021/12/24 09:52:33;;;;;;;13.97;8.13;;;;;;;7.19;88.12;99609.47;5041881;28;20497;-78
2021/12/24 09:55:10;;;;;;;17.30;11.00;;;;;;;7.18;88.63;99612.41;5076204;28;20548;-79
2021/12/24 09:57:36;;;;;;;13.20;9.02;;;;;;;7.24;88.78;99606.84;5053164;28;20385;-79
2021/12/24 10:00:02;;;;;;;16.30;10.23;;;;;;;7.25;88.61;99607.69;5047592;28;20900;-79
2021/12/24 10:02:41;;;;;;;8.52;7.63;;;;;;;7.23;88.67;99602.53;5051155;28;20393;-78
2021/12/24 10:05:28;;;;;;;11.93;8.38;;;;;;;7.18;88.99;99599.75;5055763;28;20887;-78
2021/12/24 10:08:05;;;;;;;15.32;9.93;;;;;;;7.23;89.08;99594.47;5032773;28;20414;-78
2021/12/24 10:10:31;;;;;;;12.68;8.15;;;;;;;7.26;89.33;99598.53;5034937;28;20418;-78
2021/12/24 10:13:30;;;;;;;11.50;8.68;;;;;;;7.28;89.48;99589.13;5039369;28;20420;-78
2021/12/24 10:16:05;;;;;;;13.17;9.27;;;;;;;7.27;89.35;99589.41;5036215;28;20407;-78
2021/12/24 10:18:35;;;;;;;11.07;8.38;;;;;;;7.28;89.65;99581.06;5048573;28;20409;-78
2021/12/24 10:21:10;;;;;;;13.20;8.73;;;;;;;7.27;90.33;99575.94;5036069;28;20744;-79
2021/12/24 10:23:45;;;;;;;10.48;8.00;;;;;;;7.26;90.10;99580.50;5035644;28;20472;-78
2021/12/24 10:26:21;;;;;;;13.07;8.80;;;;;;;7.27;90.37;99575.94;5048524;28;20830;-78
2021/12/24 10:28:52;;;;;;;9.23;8.05;;;;;;;7.28;90.35;99569.44;5040542;28;20411;-78
2021/12/24 10:31:19;;;;;;;11.07;7.97;;;;;;;7.28;90.36;99580.22;5044660;28;20449;-78
2021/12/24 10:34:06;;;;;;;13.25;8.88;;;;;;;7.25;90.63;99581.53;5040339;28;20755;-78
2021/12/24 10:36:32;;;;;;;14.93;9.10;;;;;;;7.26;90.47;99574.28;5040366;28;20413;-79
2021/12/24 10:38:57;;;;;;;13.17;9.87;;;;;;;7.29;90.54;99565.72;5032267;28;20425;-78
2021/12/24 10:41:25;;;;;;;11.27;8.40;;;;;;;7.27;91.01;99562.44;5030731;28;20807;-78
2021/12/24 10:43:51;;;;;;;11.30;8.32;;;;;;;7.29;90.76;99565.72;5034340;28;20945;-78
2021/12/24 10:46:24;;;;;;;12.00;7.97;;;;;;;7.27;90.82;99565.16;5037147;28;20429;-78
2021/12/24 10:49:08;;;;;;;9.05;7.70;;;;;;;7.27;90.81;99563.28;5036605;28;20425;-80
2021/12/24 10:51:57;;;;;;;13.70;7.40;;;;;;;7.28;90.76;99564.06;5028144;28;20845;-80
2021/12/24 10:54:23;;;;;;;10.32;7.85;;;;;;;7.30;90.78;99556.56;5040032;28;20409;-80
2021/12/24 10:56:48;;;;;;;8.67;7.77;;;;;;;7.36;90.59;99560.16;5033034;28;20450;-78
2021/12/24 10:59:14;;;;;;;8.30;7.43;;;;;;;7.35;91.04;99555.81;5034520;28;20758;-78
2021/12/24 11:01:39;;;;;;;10.20;8.37;;;;;;;7.35;90.97;99553.13;5030095;28;20473;-79
2021/12/24 11:04:04;;;;;;;10.97;8.07;;;;;;;7.37;91.02;99553.72;5031655;28;20411;-79
2021/12/24 11:06:31;;;;;;;14.02;8.10;;;;;;;7.37;91.27;99557.22;5040821;28;20418;-79
2021/12/24 11:08:58;;;;;;;11.95;8.40;;;;;;;7.40;91.98;99559.44;5031976;28;20410;-79
2021/12/24 11:11:23;;;;;;;9.73;7.13;;;;;;;7.49;91.45;99554.44;5044572;28;20409;-79
2021/12/24 11:13:52;;;;;;;10.80;7.60;;;;;;;7.49;91.50;99549.03;5038446;28;20441;-79
2021/12/24 11:16:20;;;;;;;10.95;7.78;;;;;;;7.52;91.29;99541.28;5031631;28;20474;-79
2021/12/24 11:18:55;;;;;;;13.35;9.88;;;;;;;7.57;91.64;99544.06;5040144;28;20462;-79
2021/12/24 11:21:23;;;;;;;10.48;7.85;;;;;;;7.61;91.88;99533.56;5039838;28;21095;-79
2021/12/24 11:23:50;;;;;;;10.15;7.90;;;;;;;7.58;92.22;99531.38;5038501;28;20916;-79
2021/12/24 11:26:50;;;;;;;10.10;7.90;;;;;;;7.62;91.94;99538.72;5032407;28;20427;-79
2021/12/24 11:29:15;;;;;;;11.32;8.40;;;;;;;7.61;92.35;99526.31;5041218;28;20415;-78
2021/12/24 11:31:40;;;;;;;9.13;7.07;;;;;;;7.60;92.24;99529.25;5030214;28;20415;-79
2021/12/24 11:34:07;;;;;;;8.32;6.20;;;;;;;7.60;92.56;99522.00;5032910;28;20417;-78
2021/12/24 11:36:32;;;;;;;8.00;6.63;;;;;;;7.65;92.51;99527.44;5043345;28;20453;-78
2021/12/24 11:39:02;;;;;;;9.13;6.63;;;;;;;7.71;92.08;99518.34;5029815;28;20950;-79
2021/12/24 11:41:31;;;;;;;7.50;5.97;;;;;;;7.75;92.02;99521.38;5032351;28;20851;-78
2021/12/24 11:43:57;;;;;;;7.63;6.53;;;;;;;7.74;91.78;99517.84;5030865;28;20412;-79
2021/12/24 11:46:25;;;;;;;6.65;6.05;;;;;;;7.67;92.55;99511.81;5038063;28;20415;-78
2021/12/24 11:48:53;;;;;;;8.07;5.78;;;;;;;7.65;92.39;99505.03;5031610;28;20430;-79
2021/12/24 11:51:30;;;;;;;7.70;5.40;;;;;;;7.64;92.71;99503.44;5031391;28;20421;-79
2021/12/24 11:54:03;;;;;;;9.57;6.45;;;;;;;7.62;92.39;99502.84;5039099;28;20450;-81
2021/12/24 11:56:39;;;;;;;9.32;6.90;;;;;;;7.61;92.88;99506.59;5034384;28;20485;-78
2021/12/24 11:59:05;;;;;;;6.47;5.63;;;;;;;7.60;92.65;99502.28;5035650;28;20399;-78
2021/12/24 12:01:38;;;;;;;8.90;6.10;;;;;;;7.59;93.00;99503.34;5055327;28;20407;-80
2021/12/24 12:04:12;;;;;;;9.00;8.10;;;;;;;7.60;92.90;99497.72;5051755;28;20434;-79
2021/12/24 12:06:37;;;;;;;8.32;6.50;;;;;;;7.61;92.89;99493.13;5033861;28;20403;-80
2021/12/24 12:09:10;;;;;;;8.00;6.47;;;;;;;7.63;93.34;99480.22;5045204;28;20734;-79
2021/12/24 12:11:38;;;;;;;7.50;6.70;;;;;;;7.66;93.06;99461.66;5034290;28;20403;-79
2021/12/24 12:14:04;;;;;;;9.55;7.47;;;;;;;7.66;93.02;99474.34;5040243;28;20496;-79
2021/12/24 12:16:39;;;;;;;15.18;8.80;;;;;;;7.70;93.21;99457.41;5054777;28;20523;-79
2021/12/24 12:19:29;;;;;;;11.80;8.82;;;;;;;7.71;92.95;99463.59;5051084;28;20903;-80
2021/12/24 12:22:20;;;;;;;9.43;7.40;;;;;;;7.67;93.70;99460.59;5043277;28;20433;-79
2021/12/24 12:24:59;;;;;;;12.67;7.30;;;;;;;7.68;93.41;99448.75;5046491;28;20416;-80
2021/12/24 12:27:29;;;;;;;11.05;7.18;;;;;;;7.70;93.21;99452.03;5036864;28;20403;-79
2021/12/24 12:29:54;;;;;;;10.70;8.05;;;;;;;7.72;93.22;99457.97;5043288;28;20802;-78
2021/12/24 12:32:24;;;;;;;10.10;7.60;;;;;;;7.74;93.35;99452.31;5034061;28;20399;-78
2021/12/24 12:35:00;;;;;;;9.68;6.32;;;;;;;7.76;93.33;99448.31;5034782;28;20403;-78
2021/12/24 12:37:41;;;;;;;8.85;6.43;;;;;;;7.78;93.32;99456.97;5043594;28;20443;-79
2021/12/24 12:40:28;;;;;;;10.65;6.97;;;;;;;7.80;93.10;99452.13;5040426;28;20425;-78
2021/12/24 12:43:09;;;;;;;8.25;6.47;;;;;;;7.79;93.22;99447.81;5049539;28;20465;-78
2021/12/24 12:45:38;;;;;;;9.95;6.97;;;;;;;7.83;93.24;99445.44;5044019;28;20434;-78
2021/12/24 12:48:06;;;;;;;9.63;6.82;;;;;;;7.84;93.04;99442.47;5040175;28;20402;-78
2021/12/24 12:50:33;;;;;;;10.43;7.30;;;;;;;7.85;93.25;99437.88;5038442;28;20397;-78
2021/12/24 12:53:25;;;;;;;13.15;7.93;;;;;;;7.87;93.21;99438.44;5037622;28;20401;-78
2021/12/24 12:56:18;;;;;;;10.67;8.03;;;;;;;7.89;92.75;99433.63;5035889;28;20410;-79
2021/12/24 12:58:59;;;;;;;13.15;8.80;;;;;;;7.90;92.74;99426.34;5038419;28;20762;-79
2021/12/24 13:01:25;;;;;;;7.30;6.38;;;;;;;7.95;92.76;99421.81;5041255;28;20775;-79
2021/12/24 13:04:06;;;;;;;12.65;7.32;;;;;;;8.00;92.66;99416.47;5047403;28;20482;-79
2021/12/24 13:06:43;;;;;;;8.45;7.00;;;;;;;8.03;92.86;99424.09;5038896;28;20461;-80
2021/12/24 13:09:13;;;;;;;11.23;8.57;;;;;;;8.03;93.00;99418.69;5037882;28;20385;-78
2021/12/24 13:11:41;;;;;;;20.17;12.80;;;;;;;8.07;92.66;99421.66;5038647;28;20405;-79
2021/12/24 13:14:11;;;;;;;10.77;7.90;;;;;;;8.07;93.14;99413.56;5038287;28;20407;-79